Time;durP1;ratioP1;P1;durP2;ratioP2;P2;SDS_P1;SDS_P2;PMS_P1;PMS_P2;Temp;Humidity;BMP_temperature;BMP_pressure;BME280_temperature;BME280_humidity;BME280_pressure;Samples;Min_cycle;Max_cycle;Signal;HPM_P1;HPM_P2
2021/09/01 00:00:37;;;;;;;3.70;2.50;;;23.60;60.70;;;;;;5107374;28;20471;-65
2021/09/01 00:03:06;;;;;;;2.40;1.80;;;23.60;60.60;;;;;;5086810;28;20222;-65
2021/09/01 00:05:39;;;;;;;3.50;2.00;;;23.60;60.60;;;;;;5093248;28;20200;-65
2021/09/01 00:08:08;;;;;;;2.90;2.30;;;23.50;60.50;;;;;;5110891;28;20373;-65
2021/09/01 00:10:41;;;;;;;2.73;1.80;;;23.60;60.70;;;;;;5110715;28;20277;-65
2021/09/01 00:13:09;;;;;;;3.47;2.10;;;23.60;60.60;;;;;;5110634;28;20219;-65
2021/09/01 00:15:38;;;;;;;4.33;2.20;;;23.60;60.60;;;;;;5082201;28;20201;-65
2021/09/01 00:18:09;;;;;;;3.30;2.30;;;23.50;60.40;;;;;;5107900;28;20220;-65
2021/09/01 00:20:50;;;;;;;3.20;2.33;;;23.50;60.40;;;;;;5084386;28;20697;-65
2021/09/01 00:23:18;;;;;;;2.50;2.10;;;23.50;60.50;;;;;;5110817;28;20658;-65
2021/09/01 00:25:49;;;;;;;3.40;2.07;;;23.50;60.60;;;;;;5098156;28;20193;-65
2021/09/01 00:28:19;;;;;;;3.20;2.10;;;23.50;60.50;;;;;;5110321;28;20189;-65
2021/09/01 00:30:49;;;;;;;4.17;2.30;;;23.50;60.50;;;;;;5104121;28;20200;-65
2021/09/01 00:33:23;;;;;;;3.43;2.20;;;23.50;60.60;;;;;;5110329;28;20204;-65
2021/09/01 00:35:55;;;;;;;4.83;2.73;;;23.50;60.50;;;;;;5111817;28;20201;-65
2021/09/01 00:38:49;;;;;;;3.70;2.33;;;23.50;60.60;;;;;;5096932;28;20255;-65
2021/09/01 00:41:30;;;;;;;4.03;2.20;;;23.40;60.50;;;;;;5068004;27;20209;-64
2021/09/01 00:44:23;;;;;;;5.10;2.33;;;23.40;60.60;;;;;;5094956;27;20243;-64
2021/09/01 00:46:52;;;;;;;4.63;2.33;;;23.40;60.60;;;;;;5092694;28;20209;-65
2021/09/01 00:49:24;;;;;;;3.50;2.17;;;23.40;60.60;;;;;;5115029;27;20637;-65
2021/09/01 00:51:55;;;;;;;3.17;2.20;;;23.40;60.60;;;;;;5094950;28;20200;-65
2021/09/01 00:54:29;;;;;;;3.23;2.30;;;23.40;60.60;;;;;;5113826;27;20196;-65
2021/09/01 00:57:03;;;;;;;3.93;2.13;;;23.40;60.60;;;;;;5103249;28;20191;-65
2021/09/01 00:59:37;;;;;;;3.80;2.13;;;23.40;60.60;;;;;;5088326;28;20261;-65
2021/09/01 01:02:09;;;;;;;2.80;2.00;;;23.40;60.60;;;;;;5098748;28;20200;-65
2021/09/01 01:04:41;;;;;;;4.40;2.20;;;23.40;60.70;;;;;;5089035;28;20197;-65
2021/09/01 01:07:11;;;;;;;3.60;2.00;;;23.40;60.70;;;;;;5092896;28;20645;-65
2021/09/01 01:09:47;;;;;;;2.43;1.80;;;23.40;60.70;;;;;;5109446;27;20653;-65
2021/09/01 01:12:24;;;;;;;3.60;1.97;;;23.40;60.80;;;;;;5127625;27;20605;-65
2021/09/01 01:14:56;;;;;;;2.87;1.80;;;23.30;60.80;;;;;;5092451;28;20276;-65
2021/09/01 01:17:27;;;;;;;3.00;2.20;;;23.30;60.90;;;;;;5108788;28;20201;-65
2021/09/01 01:19:59;;;;;;;2.80;1.87;;;23.30;60.80;;;;;;5104615;28;20672;-64
2021/09/01 01:22:30;;;;;;;4.03;2.20;;;23.40;60.90;;;;;;5082695;28;20228;-65
2021/09/01 01:25:07;;;;;;;3.70;1.90;;;23.30;60.80;;;;;;5102238;28;20201;-65
2021/09/01 01:27:44;;;;;;;5.00;2.20;;;23.30;60.80;;;;;;5084867;28;20261;-65
2021/09/01 01:30:21;;;;;;;2.30;1.87;;;23.30;60.90;;;;;;5085985;28;20204;-65
2021/09/01 01:32:53;;;;;;;2.90;2.20;;;23.30;61.00;;;;;;5075469;28;20197;-65
2021/09/01 01:35:31;;;;;;;4.10;2.00;;;23.30;61.00;;;;;;5072066;28;20195;-65
2021/09/01 01:38:19;;;;;;;4.47;2.20;;;23.30;61.00;;;;;;5109043;28;20239;-65
2021/09/01 01:40:50;;;;;;;3.23;2.10;;;23.30;61.00;;;;;;5111634;28;20196;-65
2021/09/01 01:43:21;;;;;;;3.00;1.97;;;23.30;61.10;;;;;;5090156;28;20209;-65
2021/09/01 01:45:50;;;;;;;3.67;2.17;;;23.30;61.10;;;;;;5098412;28;20352;-65
2021/09/01 01:48:41;;;;;;;2.97;2.03;;;23.30;61.10;;;;;;5105701;28;20728;-65
2021/09/01 01:51:08;;;;;;;3.10;2.20;;;23.30;61.10;;;;;;5102917;28;20245;-65
2021/09/01 01:53:37;;;;;;;3.13;2.17;;;23.30;61.10;;;;;;5108182;28;20208;-65
2021/09/01 01:56:08;;;;;;;3.47;2.27;;;23.30;61.10;;;;;;5104835;28;20245;-65
2021/09/01 01:58:37;;;;;;;3.70;2.10;;;23.20;61.00;;;;;;5109375;28;20180;-65
2021/09/01 02:01:08;;;;;;;2.80;2.03;;;23.30;61.10;;;;;;5109476;28;20706;-65
2021/09/01 02:03:38;;;;;;;3.67;2.10;;;23.20;61.00;;;;;;5100385;28;20601;-65
2021/09/01 02:06:10;;;;;;;2.93;2.03;;;23.30;61.10;;;;;;5091242;28;20200;-65
2021/09/01 02:08:38;;;;;;;3.60;2.27;;;23.20;61.00;;;;;;5107537;28;20188;-65
2021/09/01 02:11:08;;;;;;;3.27;2.40;;;23.30;61.10;;;;;;5108054;27;20212;-65
2021/09/01 02:13:39;;;;;;;3.77;2.00;;;23.30;61.20;;;;;;5075669;27;20798;-65
2021/09/01 02:16:07;;;;;;;3.73;2.20;;;23.20;61.10;;;;;;5106821;28;20201;-65
2021/09/01 02:18:39;;;;;;;3.00;2.00;;;23.20;61.10;;;;;;5100018;28;20751;-65
2021/09/01 02:21:11;;;;;;;3.40;1.93;;;23.20;61.10;;;;;;5103921;27;20195;-65
2021/09/01 02:23:38;;;;;;;3.83;2.17;;;23.20;61.10;;;;;;5108981;28;20299;-65
2021/09/01 02:26:11;;;;;;;3.00;2.10;;;23.20;61.10;;;;;;5102703;28;20209;-65
2021/09/01 02:28:43;;;;;;;2.53;1.90;;;23.20;61.10;;;;;;5109741;28;20235;-65
2021/09/01 02:31:13;;;;;;;3.20;2.10;;;23.20;61.10;;;;;;5106883;28;20188;-65
2021/09/01 02:33:43;;;;;;;2.77;2.07;;;23.20;61.10;;;;;;5110922;28;20207;-65
2021/09/01 02:36:14;;;;;;;2.90;2.00;;;23.20;61.10;;;;;;5104242;28;20547;-65
2021/09/01 02:38:45;;;;;;;2.53;1.70;;;23.20;61.20;;;;;;5092435;28;20263;-65
2021/09/01 02:41:15;;;;;;;4.03;2.30;;;23.20;61.10;;;;;;5079681;28;20201;-65
2021/09/01 02:43:50;;;;;;;3.73;1.90;;;23.20;61.10;;;;;;5071622;28;20281;-65
2021/09/01 02:46:22;;;;;;;2.50;1.93;;;23.20;61.20;;;;;;5080557;28;20241;-65
2021/09/01 02:48:55;;;;;;;3.37;1.93;;;23.20;61.20;;;;;;5107120;28;20196;-65
2021/09/01 02:51:26;;;;;;;3.40;2.13;;;23.20;61.20;;;;;;5110954;28;20192;-65
2021/09/01 02:53:55;;;;;;;3.77;2.40;;;23.20;61.20;;;;;;5106883;28;20245;-65
2021/09/01 02:56:24;;;;;;;3.73;2.23;;;23.20;61.20;;;;;;5099038;28;20641;-65
2021/09/01 02:58:56;;;;;;;2.87;2.03;;;23.20;61.80;;;;;;5100520;28;20208;-65
2021/09/01 03:01:28;;;;;;;3.40;2.27;;;23.10;61.10;;;;;;5098959;28;20204;-65
2021/09/01 03:04:00;;;;;;;3.30;2.23;;;23.10;61.10;;;;;;5096719;28;20229;-65
2021/09/01 03:06:33;;;;;;;3.93;2.33;;;23.20;61.20;;;;;;5107219;28;20200;-65
2021/09/01 03:09:03;;;;;;;3.03;2.37;;;23.10;61.10;;;;;;5109096;28;20184;-65
2021/09/01 03:11:33;;;;;;;3.43;2.47;;;23.10;61.10;;;;;;5089659;28;20196;-65
2021/09/01 03:14:05;;;;;;;4.50;2.10;;;23.10;61.10;;;;;;5095825;28;20217;-65
2021/09/01 03:16:37;;;;;;;3.50;1.90;;;23.10;61.10;;;;;;5105453;28;20237;-65
2021/09/01 03:19:08;;;;;;;4.23;2.10;;;23.20;61.20;;;;;;5079453;28;20196;-64
2021/09/01 03:21:39;;;;;;;3.60;2.00;;;23.10;61.20;;;;;;5106525;28;20222;-64
2021/09/01 03:24:09;;;;;;;3.57;2.10;;;23.10;61.20;;;;;;5110860;28;20222;-65
2021/09/01 03:26:39;;;;;;;2.63;1.97;;;23.10;61.20;;;;;;5106154;28;20253;-65
2021/09/01 03:29:11;;;;;;;3.73;2.33;;;23.10;61.20;;;;;;5097634;28;20208;-65
2021/09/01 03:31:42;;;;;;;3.87;2.27;;;23.10;61.20;;;;;;5101631;28;20213;-65
2021/09/01 03:34:10;;;;;;;3.87;2.13;;;23.10;61.20;;;;;;5101293;28;20196;-65
2021/09/01 03:36:41;;;;;;;4.63;2.07;;;23.10;61.20;;;;;;5102178;28;21716;-65
2021/09/01 03:39:14;;;;;;;3.30;2.00;;;23.10;61.20;;;;;;5105480;28;20224;-65
2021/09/01 03:41:44;;;;;;;3.50;2.27;;;23.10;61.20;;;;;;5104799;28;20652;-65
2021/09/01 03:44:15;;;;;;;3.63;2.10;;;23.10;61.20;;;;;;5105589;28;20212;-64
2021/09/01 03:46:46;;;;;;;2.97;2.10;;;23.10;61.20;;;;;;5105790;28;20196;-65
2021/09/01 03:49:17;;;;;;;2.93;2.10;;;23.10;61.10;;;;;;5104246;28;20200;-64
2021/09/01 03:51:49;;;;;;;3.90;2.27;;;23.10;61.10;;;;;;5063381;28;20212;-65
2021/09/01 03:54:19;;;;;;;4.33;2.23;;;23.10;61.10;;;;;;5087647;28;20217;-64
2021/09/01 03:56:52;;;;;;;3.53;2.10;;;23.10;61.10;;;;;;5108888;28;20606;-65
2021/09/01 03:59:21;;;;;;;3.70;2.10;;;23.10;61.20;;;;;;5104342;28;20207;-64
2021/09/01 04:01:57;;;;;;;2.47;2.13;;;23.10;61.20;;;;;;5080839;28;20207;-65
2021/09/01 04:04:29;;;;;;;3.10;1.83;;;23.10;61.20;;;;;;5104181;28;20570;-65
2021/09/01 04:06:58;;;;;;;3.07;2.00;;;23.10;61.20;;;;;;5110776;28;20613;-65
2021/09/01 04:09:29;;;;;;;3.43;1.90;;;23.00;61.20;;;;;;5107009;28;20196;-65
2021/09/01 04:12:03;;;;;;;3.00;1.90;;;23.10;61.20;;;;;;5109144;28;20730;-65
2021/09/01 04:14:33;;;;;;;3.33;2.00;;;23.00;61.20;;;;;;5090739;28;20696;-64
2021/09/01 04:17:05;;;;;;;2.40;2.10;;;23.00;61.20;;;;;;5103478;28;20200;-64
2021/09/01 04:19:36;;;;;;;3.30;2.30;;;23.10;61.30;;;;;;5089800;28;20204;-64
2021/09/01 04:22:08;;;;;;;2.73;2.40;;;23.00;61.20;;;;;;5097509;28;20673;-65
2021/09/01 04:24:39;;;;;;;2.97;2.13;;;23.00;61.20;;;;;;5093268;28;20676;-65
2021/09/01 04:27:10;;;;;;;3.07;1.87;;;23.00;61.20;;;;;;5103712;28;20201;-65
2021/09/01 04:29:42;;;;;;;3.17;2.03;;;23.00;61.20;;;;;;5124191;28;20196;-65
2021/09/01 04:32:10;;;;;;;3.97;2.20;;;23.00;61.20;;;;;;5107336;28;20269;-65
2021/09/01 04:34:41;;;;;;;3.43;2.13;;;23.00;61.20;;;;;;5105187;28;20542;-65
2021/09/01 04:37:11;;;;;;;3.23;2.10;;;23.00;61.20;;;;;;5098318;28;20207;-65
2021/09/01 04:39:40;;;;;;;4.10;2.10;;;23.00;61.20;;;;;;5100963;28;20239;-65
2021/09/01 04:42:08;;;;;;;4.43;2.13;;;23.00;61.40;;;;;;5091221;28;20267;-65
2021/09/01 04:44:36;;;;;;;4.47;2.40;;;23.00;61.30;;;;;;5082918;28;20232;-65
2021/09/01 04:47:06;;;;;;;3.23;2.03;;;23.00;61.30;;;;;;5088044;28;20288;-65
2021/09/01 04:49:36;;;;;;;2.87;2.20;;;23.00;61.30;;;;;;5103410;28;20189;-65
2021/09/01 04:52:07;;;;;;;2.97;1.93;;;23.00;61.30;;;;;;5123990;27;20196;-66
2021/09/01 04:54:39;;;;;;;3.67;1.97;;;23.00;61.30;;;;;;5104872;28;20574;-65
2021/09/01 04:57:11;;;;;;;4.13;2.20;;;23.00;61.30;;;;;;5120757;28;20559;-65
2021/09/01 04:59:39;;;;;;;2.40;1.90;;;23.00;61.30;;;;;;5111301;27;20204;-65
2021/09/01 05:02:10;;;;;;;2.87;2.00;;;23.00;61.30;;;;;;5106554;28;20197;-65
2021/09/01 05:04:45;;;;;;;2.40;1.80;;;23.00;61.30;;;;;;5083283;28;20204;-66
2021/09/01 05:07:16;;;;;;;4.33;2.20;;;23.00;61.30;;;;;;5101903;28;20197;-64
2021/09/01 05:09:49;;;;;;;3.33;2.07;;;23.00;61.30;;;;;;5091688;28;20207;-65
2021/09/01 05:12:26;;;;;;;3.17;2.23;;;23.00;61.30;;;;;;5113365;28;20192;-65
2021/09/01 05:15:00;;;;;;;2.40;1.93;;;22.90;61.20;;;;;;5094558;28;20214;-65
2021/09/01 05:17:35;;;;;;;3.27;2.10;;;22.90;61.20;;;;;;5110331;28;20215;-65
2021/09/01 05:20:08;;;;;;;5.17;2.40;;;22.90;61.20;;;;;;5103286;28;20196;-65
2021/09/01 05:22:39;;;;;;;3.40;2.40;;;23.00;61.30;;;;;;5103348;28;20204;-65
2021/09/01 05:25:23;;;;;;;3.10;2.30;;;22.90;61.20;;;;;;5092120;28;20568;-65
2021/09/01 05:27:54;;;;;;;3.17;1.77;;;22.90;61.20;;;;;;5109303;28;20334;-65
2021/09/01 05:30:30;;;;;;;3.23;2.03;;;23.00;61.30;;;;;;5061619;28;20580;-66
2021/09/01 05:33:04;;;;;;;3.23;2.20;;;22.90;61.20;;;;;;5105766;28;20192;-65
2021/09/01 05:35:34;;;;;;;3.00;2.10;;;22.90;61.20;;;;;;5097154;28;20653;-65
2021/09/01 05:38:06;;;;;;;4.07;2.13;;;22.90;61.20;;;;;;5098073;28;20220;-66
2021/09/01 05:40:40;;;;;;;3.23;2.00;;;22.90;61.10;;;;;;5084953;28;20225;-65
2021/09/01 05:43:11;;;;;;;4.13;2.67;;;23.00;61.20;;;;;;5071780;28;20197;-66
2021/09/01 05:45:50;;;;;;;3.77;2.30;;;22.90;61.10;;;;;;5074590;28;20728;-65
2021/09/01 05:48:32;;;;;;;4.40;2.33;;;22.90;61.10;;;;;;5072865;28;20691;-65
2021/09/01 05:51:07;;;;;;;3.00;2.20;;;22.90;61.10;;;;;;5073367;28;20208;-65
2021/09/01 05:53:44;;;;;;;2.97;2.03;;;22.90;61.10;;;;;;5092576;28;20200;-65
2021/09/01 05:56:21;;;;;;;5.00;2.60;;;22.90;61.10;;;;;;5088198;28;20230;-65
2021/09/01 05:58:57;;;;;;;2.80;2.20;;;22.90;61.10;;;;;;5075132;28;20236;-65
2021/09/01 06:01:28;;;;;;;3.77;2.43;;;22.90;61.00;;;;;;5087919;28;20283;-66
2021/09/01 06:04:13;;;;;;;3.40;2.30;;;22.90;61.60;;;;;;5089618;28;20295;-67
2021/09/01 06:06:44;;;;;;;4.50;2.33;;;22.90;61.00;;;;;;5091836;28;20219;-66
2021/09/01 06:09:16;;;;;;;2.93;2.20;;;22.90;61.00;;;;;;5090494;28;20225;-67
2021/09/01 06:11:50;;;;;;;4.00;2.43;;;22.90;61.00;;;;;;5092778;28;20653;-65
2021/09/01 06:14:22;;;;;;;2.83;2.23;;;22.90;61.00;;;;;;5075673;28;20219;-66
2021/09/01 06:17:03;;;;;;;2.70;2.17;;;22.90;61.00;;;;;;5064687;28;20288;-65
2021/09/01 06:19:32;;;;;;;2.97;2.03;;;22.90;61.10;;;;;;5091411;28;20209;-65
2021/09/01 06:22:03;;;;;;;2.97;1.93;;;22.90;61.10;;;;;;5092440;28;20612;-67
2021/09/01 06:24:33;;;;;;;6.53;3.07;;;22.90;61.10;;;;;;5079940;28;20217;-66
2021/09/01 06:27:08;;;;;;;15.27;4.80;;;22.90;61.20;;;;;;5087215;28;20200;-68
2021/09/01 06:29:39;;;;;;;13.70;5.07;;;22.90;61.50;;;;;;5076378;28;20197;-66
2021/09/01 06:32:10;;;;;;;11.60;4.63;;;22.90;62.10;;;;;;5094840;28;20243;-64
2021/09/01 06:34:40;;;;;;;16.03;4.73;;;22.90;62.20;;;;;;5088475;28;20208;-64
2021/09/01 06:37:13;;;;;;;11.57;4.40;;;23.00;61.20;;;;;;5072726;28;20228;-65
2021/09/01 06:39:43;;;;;;;11.23;3.83;;;23.00;60.10;;;;;;5085321;28;20237;-66
2021/09/01 06:42:13;;;;;;;13.77;4.47;;;23.00;59.60;;;;;;5084182;28;20253;-67
2021/09/01 06:44:42;;;;;;;10.63;4.20;;;23.00;59.40;;;;;;5067714;28;20299;-69
2021/09/01 06:47:12;;;;;;;8.37;4.13;;;23.00;58.80;;;;;;5074520;28;20200;-68
2021/09/01 06:49:42;;;;;;;8.17;3.93;;;23.00;58.30;;;;;;5083731;28;20196;-67
2021/09/01 06:52:25;;;;;;;11.23;4.40;;;23.00;57.90;;;;;;5075995;28;20279;-67
2021/09/01 06:54:55;;;;;;;9.50;4.20;;;23.00;57.80;;;;;;5079236;28;20194;-66
2021/09/01 06:57:27;;;;;;;8.47;4.10;;;23.00;58.10;;;;;;5067026;28;20209;-66
2021/09/01 06:59:55;;;;;;;7.47;4.37;;;23.00;57.80;;;;;;5084672;28;20196;-68
2021/09/01 07:02:23;;;;;;;11.03;4.27;;;23.00;57.50;;;;;;5068681;28;20212;-66
2021/09/01 07:04:56;;;;;;;10.23;3.90;;;23.10;58.00;;;;;;5068233;28;20201;-65
2021/09/01 07:07:24;;;;;;;10.80;4.47;;;23.10;59.40;;;;;;5085781;28;20193;-67
2021/09/01 07:09:52;;;;;;;10.73;3.80;;;23.10;59.40;;;;;;5063780;28;20194;-67
2021/09/01 07:12:23;;;;;;;7.23;4.07;;;23.10;59.10;;;;;;5083796;28;20540;-67
2021/09/01 07:14:56;;;;;;;12.63;4.30;;;23.10;58.70;;;;;;5079807;28;20216;-68
2021/09/01 07:17:32;;;;;;;9.97;3.80;;;23.20;58.70;;;;;;5082200;28;20257;-69
2021/09/01 07:20:15;;;;;;;7.80;4.10;;;23.20;58.80;;;;;;5058785;28;20225;-67
2021/09/01 07:22:46;;;;;;;10.77;3.70;;;23.30;58.80;;;;;;5085533;28;20204;-67
2021/09/01 07:25:17;;;;;;;8.43;4.10;;;23.30;58.50;;;;;;5069435;28;20211;-66
2021/09/01 07:27:48;;;;;;;5.53;3.20;;;23.30;58.60;;;;;;5081869;28;20201;-66
2021/09/01 07:30:18;;;;;;;7.10;3.57;;;23.30;58.40;;;;;;5066211;28;20283;-66
2021/09/01 07:32:45;;;;;;;9.07;4.13;;;23.40;58.10;;;;;;5066800;28;20205;-66
2021/09/01 07:35:18;;;;;;;7.67;4.13;;;23.40;58.30;;;;;;5082307;28;20193;-66
2021/09/01 07:37:50;;;;;;;5.53;3.87;;;23.50;58.10;;;;;;5070752;28;20234;-69
2021/09/01 07:40:25;;;;;;;8.13;3.60;;;23.50;57.80;;;;;;5071891;28;20188;-69
2021/09/01 07:42:55;;;;;;;7.83;3.70;;;23.50;58.10;;;;;;5087750;28;20235;-70
2021/09/01 07:45:30;;;;;;;6.33;3.50;;;23.50;57.90;;;;;;5061127;28;20557;-67
2021/09/01 07:48:04;;;;;;;5.93;3.37;;;23.50;58.00;;;;;;5105716;28;20235;-67
2021/09/01 07:50:35;;;;;;;6.23;3.30;;;23.60;57.90;;;;;;5108519;28;20220;-66
2021/09/01 07:53:04;;;;;;;5.80;3.33;;;23.60;57.80;;;;;;5104812;28;20230;-68
2021/09/01 07:55:35;;;;;;;6.50;3.17;;;23.60;57.50;;;;;;5053570;28;20208;-66
2021/09/01 07:58:05;;;;;;;5.20;3.13;;;23.60;57.10;;;;;;5103645;28;20220;-68
2021/09/01 08:00:34;;;;;;;6.40;3.80;;;23.60;57.10;;;;;;5102165;28;20218;-70
2021/09/01 08:03:03;;;;;;;8.27;3.33;;;23.60;56.70;;;;;;5104896;28;21409;-69
2021/09/01 08:05:41;;;;;;;6.73;3.50;;;23.70;56.90;;;;;;5091677;28;20320;-70
2021/09/01 08:08:10;;;;;;;7.13;3.17;;;23.70;56.50;;;;;;5088106;28;20192;-70
2021/09/01 08:10:37;;;;;;;6.17;3.50;;;23.70;56.40;;;;;;5111791;28;20185;-66
2021/09/01 08:13:08;;;;;;;10.70;4.13;;;23.70;56.20;;;;;;5105942;28;20212;-67
2021/09/01 08:15:38;;;;;;;5.73;3.40;;;23.70;56.00;;;;;;5097102;28;20231;-67
2021/09/01 08:18:08;;;;;;;9.43;3.70;;;23.60;56.50;;;;;;5103970;28;20717;-67
2021/09/01 08:20:40;;;;;;;6.03;3.60;;;23.60;57.40;;;;;;5095941;28;20200;-68
2021/09/01 08:23:11;;;;;;;5.33;3.53;;;23.60;58.50;;;;;;5103557;28;20216;-68
2021/09/01 08:25:38;;;;;;;10.20;3.43;;;23.60;58.80;;;;;;5106904;28;20724;-68
2021/09/01 08:28:07;;;;;;;7.50;3.17;;;23.60;59.80;;;;;;5087574;28;20231;-68
2021/09/01 08:30:36;;;;;;;5.83;3.20;;;23.50;58.60;;;;;;5093641;28;20208;-66
2021/09/01 08:33:10;;;;;;;7.13;3.73;;;23.50;58.50;;;;;;5106565;28;20576;-66
2021/09/01 08:35:42;;;;;;;6.67;3.30;;;23.40;58.70;;;;;;5109926;28;20261;-67
2021/09/01 08:38:12;;;;;;;9.17;3.27;;;23.40;58.80;;;;;;5107317;28;20240;-68
2021/09/01 08:40:43;;;;;;;5.90;3.27;;;23.40;58.60;;;;;;5103447;28;20274;-65
2021/09/01 08:43:19;;;;;;;8.60;3.30;;;23.30;57.10;;;;;;5107994;28;20257;-65
2021/09/01 08:45:49;;;;;;;4.53;2.87;;;23.30;59.20;;;;;;5108451;28;20220;-68
2021/09/01 08:48:24;;;;;;;7.93;3.30;;;23.30;59.20;;;;;;5086723;28;20537;-67
2021/09/01 08:50:53;;;;;;;6.43;2.97;;;23.30;59.20;;;;;;5091885;28;20657;-65
2021/09/01 08:53:20;;;;;;;5.57;3.17;;;23.30;58.80;;;;;;5089021;28;20197;-67
2021/09/01 08:55:51;;;;;;;5.03;3.30;;;23.20;58.40;;;;;;5092083;28;20211;-67
2021/09/01 08:58:24;;;;;;;5.97;3.20;;;23.30;59.00;;;;;;5092705;28;20616;-65
2021/09/01 09:00:55;;;;;;;5.20;3.57;;;23.30;58.90;;;;;;5112062;28;20297;-66
2021/09/01 09:03:32;;;;;;;5.83;3.00;;;23.40;58.80;;;;;;5107744;28;20241;-66
2021/09/01 09:06:04;;;;;;;7.10;3.10;;;23.40;58.90;;;;;;5110318;28;20273;-66
2021/09/01 09:08:36;;;;;;;5.50;2.80;;;23.50;58.60;;;;;;5093325;28;20278;-67
2021/09/01 09:11:07;;;;;;;5.00;2.63;;;23.60;58.60;;;;;;5110319;28;20196;-66
2021/09/01 09:13:36;;;;;;;5.83;3.23;;;23.60;58.60;;;;;;5100558;28;20221;-66
2021/09/01 09:16:09;;;;;;;5.30;3.27;;;23.60;58.50;;;;;;5082961;28;20231;-65
2021/09/01 09:18:53;;;;;;;6.93;3.17;;;23.60;57.30;;;;;;5094142;28;20198;-66
2021/09/01 09:21:24;;;;;;;5.97;3.03;;;23.70;56.80;;;;;;5107767;28;20515;-67
2021/09/01 09:23:54;;;;;;;6.83;3.30;;;23.70;56.60;;;;;;5110686;28;20197;-66
2021/09/01 09:26:31;;;;;;;6.43;3.10;;;23.70;56.70;;;;;;5106682;28;20224;-69
2021/09/01 09:29:12;;;;;;;6.37;3.07;;;23.80;57.10;;;;;;5096479;28;20205;-68
2021/09/01 09:31:43;;;;;;;4.83;3.00;;;23.70;57.60;;;;;;5107707;28;20201;-67
2021/09/01 09:34:19;;;;;;;9.40;4.03;;;23.80;57.70;;;;;;5083205;28;20265;-67
2021/09/01 09:37:10;;;;;;;6.70;3.17;;;23.80;56.40;;;;;;5107941;28;20199;-68
2021/09/01 09:39:49;;;;;;;5.10;2.77;;;23.80;56.30;;;;;;5101988;28;20236;-67
2021/09/01 09:42:35;;;;;;;5.53;2.90;;;23.80;56.80;;;;;;5090640;28;20270;-67
2021/09/01 09:45:26;;;;;;;9.17;3.27;;;23.80;57.80;;;;;;5094838;28;20559;-69
2021/09/01 09:47:59;;;;;;;9.60;3.83;;;23.90;56.50;;;;;;5104115;28;20191;-67
2021/09/01 09:50:29;;;;;;;8.50;3.80;;;23.90;54.80;;;;;;5084084;28;20707;-69
2021/09/01 09:53:35;;;;;;;7.73;3.77;;;23.80;53.00;;;;;;5102277;28;20193;-68
2021/09/01 09:56:24;;;;;;;6.53;3.27;;;23.80;53.40;;;;;;5092672;28;20303;-66
2021/09/01 09:58:56;;;;;;;8.87;3.23;;;23.70;51.70;;;;;;5106008;28;20201;-67
2021/09/01 10:01:26;;;;;;;6.30;3.43;;;23.70;53.60;;;;;;5079473;28;20290;-67
2021/09/01 10:03:57;;;;;;;8.03;2.80;;;23.70;53.20;;;;;;5094019;28;20277;-70
2021/09/01 10:06:29;;;;;;;8.50;3.30;;;23.70;53.40;;;;;;5108189;28;20217;-68
2021/09/01 10:09:04;;;;;;;6.27;2.93;;;23.70;56.80;;;;;;5109439;28;20750;-69
2021/09/01 10:11:44;;;;;;;7.27;3.67;;;23.70;57.30;;;;;;5082813;28;20188;-68
2021/09/01 10:14:21;;;;;;;7.80;3.17;;;23.70;57.20;;;;;;5094489;28;20227;-67
2021/09/01 10:17:07;;;;;;;5.27;3.10;;;23.70;56.30;;;;;;5052645;28;20220;-66
2021/09/01 10:19:36;;;;;;;5.97;3.30;;;23.70;55.30;;;;;;5083454;28;20212;-66
2021/09/01 10:22:19;;;;;;;5.30;3.20;;;23.60;54.70;;;;;;5097331;28;20337;-66
2021/09/01 10:24:50;;;;;;;4.13;3.10;;;23.60;55.60;;;;;;5085648;28;20716;-66
2021/09/01 10:27:28;;;;;;;7.63;3.50;;;23.60;55.80;;;;;;5090015;28;20210;-66
2021/09/01 10:30:14;;;;;;;7.73;3.13;;;23.50;55.20;;;;;;5093561;27;20210;-66
2021/09/01 10:32:51;;;;;;;6.67;3.23;;;23.50;56.40;;;;;;5097765;27;20610;-67
2021/09/01 10:35:20;;;;;;;5.37;3.17;;;23.50;56.70;;;;;;5097042;28;20217;-66
2021/09/01 10:37:53;;;;;;;7.17;3.03;;;23.50;55.10;;;;;;5102326;28;20825;-65
2021/09/01 10:40:29;;;;;;;6.40;3.00;;;23.40;54.00;;;;;;5100120;28;20700;-66
2021/09/01 10:43:22;;;;;;;8.70;3.47;;;23.40;53.70;;;;;;5083507;28;20299;-66
2021/09/01 10:45:54;;;;;;;5.70;3.20;;;23.40;56.40;;;;;;5083284;28;20208;-65
2021/09/01 10:48:23;;;;;;;6.27;2.93;;;23.40;57.30;;;;;;5102860;28;20201;-65
2021/09/01 10:50:51;;;;;;;5.83;3.00;;;23.40;57.70;;;;;;5101046;27;20215;-66
2021/09/01 10:53:29;;;;;;;5.50;3.00;;;23.40;58.20;;;;;;5072396;28;20651;-66
2021/09/01 10:56:13;;;;;;;5.07;2.97;;;23.30;57.10;;;;;;5086056;28;20562;-66
2021/09/01 10:58:44;;;;;;;5.90;3.10;;;23.40;58.00;;;;;;5089419;28;20199;-72
2021/09/01 11:01:23;;;;;;;6.70;3.13;;;23.40;58.00;;;;;;5054603;28;20195;-69
2021/09/01 11:04:03;;;;;;;6.53;3.00;;;23.40;58.80;;;;;;5080666;28;20216;-67
2021/09/01 11:06:33;;;;;;;4.17;2.73;;;23.40;58.50;;;;;;5084263;28;20688;-69
2021/09/01 11:09:10;;;;;;;8.17;3.27;;;23.40;57.90;;;;;;5082431;28;20188;-68
2021/09/01 11:11:44;;;;;;;7.00;3.30;;;23.40;58.40;;;;;;5105549;28;20616;-69
2021/09/01 11:14:28;;;;;;;7.97;3.20;;;23.40;57.60;;;;;;5100625;28;20212;-69
2021/09/01 11:17:00;;;;;;;5.63;3.20;;;23.50;57.80;;;;;;5106745;28;20188;-70
2021/09/01 11:19:30;;;;;;;4.00;2.60;;;23.50;58.00;;;;;;5072125;28;20731;-67
2021/09/01 11:22:06;;;;;;;6.37;3.50;;;23.50;58.70;;;;;;5088951;28;20188;-68
2021/09/01 11:24:54;;;;;;;7.60;3.50;;;23.50;58.30;;;;;;5090445;28;20219;-68
2021/09/01 11:27:27;;;;;;;8.57;3.43;;;23.50;57.80;;;;;;5107943;27;20287;-68
2021/09/01 11:30:08;;;;;;;7.23;3.20;;;23.50;57.20;;;;;;5093511;28;20208;-68
2021/09/01 11:32:55;;;;;;;6.43;3.40;;;23.50;57.30;;;;;;5098230;28;20808;-67
2021/09/01 11:35:29;;;;;;;7.80;3.33;;;23.50;57.80;;;;;;5100585;28;20203;-68
2021/09/01 11:38:02;;;;;;;7.97;3.10;;;23.50;57.90;;;;;;5104452;28;20289;-68
2021/09/01 11:40:42;;;;;;;5.17;2.70;;;23.50;58.10;;;;;;5083331;28;20265;-69
2021/09/01 11:43:21;;;;;;;5.03;2.87;;;23.60;57.80;;;;;;5089260;28;20224;-68
2021/09/01 11:45:52;;;;;;;5.03;2.90;;;23.60;58.00;;;;;;5077660;28;20229;-68
2021/09/01 11:48:39;;;;;;;6.47;3.03;;;23.60;58.20;;;;;;5093720;28;20203;-69
2021/09/01 11:51:13;;;;;;;6.03;3.10;;;23.60;58.30;;;;;;5074623;28;20680;-70
2021/09/01 11:54:08;;;;;;;4.00;2.60;;;23.60;57.90;;;;;;5067631;28;20278;-68
2021/09/01 11:56:54;;;;;;;8.03;3.27;;;23.70;57.90;;;;;;5092454;28;20208;-67
2021/09/01 11:59:43;;;;;;;5.63;3.17;;;23.70;57.50;;;;;;5090269;28;20227;-67
2021/09/01 12:02:22;;;;;;;8.33;2.70;;;23.70;57.20;;;;;;5094466;28;20189;-67
2021/09/01 12:04:55;;;;;;;4.57;3.10;;;23.70;57.90;;;;;;5074268;28;20271;-69
2021/09/01 12:07:33;;;;;;;4.50;2.53;;;23.70;57.10;;;;;;5073953;28;20195;-69
2021/09/01 12:10:09;;;;;;;9.07;3.30;;;23.70;57.30;;;;;;5090487;28;20225;-68
2021/09/01 12:12:45;;;;;;;5.80;2.77;;;23.80;56.90;;;;;;5075007;28;20188;-69
2021/09/01 12:15:18;;;;;;;5.40;2.80;;;23.70;57.20;;;;;;5090581;28;20300;-68
2021/09/01 12:18:07;;;;;;;7.47;3.43;;;23.80;56.50;;;;;;5075445;28;20220;-68
2021/09/01 12:20:38;;;;;;;6.53;2.77;;;23.80;57.10;;;;;;5097534;28;20209;-71
2021/09/01 12:23:16;;;;;;;7.07;3.30;;;23.80;57.80;;;;;;5084269;28;20221;-67
2021/09/01 12:25:44;;;;;;;5.17;2.97;;;23.80;57.10;;;;;;5059395;28;20749;-67
2021/09/01 12:28:17;;;;;;;7.23;3.00;;;23.80;56.70;;;;;;5089463;28;20264;-67
2021/09/01 12:30:49;;;;;;;5.40;2.90;;;23.80;56.80;;;;;;5085031;28;20190;-67
2021/09/01 12:33:21;;;;;;;4.67;2.63;;;23.80;56.80;;;;;;5091634;28;20236;-68
2021/09/01 12:36:02;;;;;;;5.00;3.20;;;23.80;57.10;;;;;;5088393;28;20196;-69
2021/09/01 12:38:30;;;;;;;5.87;2.87;;;23.90;57.70;;;;;;5094840;28;20228;-66
2021/09/01 12:41:01;;;;;;;5.20;2.80;;;23.80;57.30;;;;;;5102303;28;20197;-66
2021/09/01 12:43:42;;;;;;;6.07;3.20;;;23.80;56.00;;;;;;5080910;28;20204;-66
2021/09/01 12:46:12;;;;;;;5.50;3.10;;;23.80;55.70;;;;;;5105750;28;20204;-66
2021/09/01 12:48:44;;;;;;;5.73;3.30;;;23.80;56.00;;;;;;5092242;28;20206;-66
2021/09/01 12:51:29;;;;;;;6.60;3.47;;;23.80;56.10;;;;;;5108054;28;20275;-66
2021/09/01 12:54:05;;;;;;;6.93;3.17;;;23.80;53.50;;;;;;5111195;28;20646;-66
2021/09/01 12:56:41;;;;;;;6.17;3.43;;;23.80;51.80;;;;;;5100994;28;20204;-66
2021/09/01 12:59:09;;;;;;;5.30;2.90;;;23.80;53.30;;;;;;5088276;28;20204;-67
2021/09/01 13:01:50;;;;;;;5.50;2.83;;;23.80;55.30;;;;;;5096719;28;20627;-66
2021/09/01 13:04:23;;;;;;;6.57;2.90;;;23.80;55.30;;;;;;5109234;28;20208;-66
2021/09/01 13:06:58;;;;;;;8.40;3.47;;;23.80;56.80;;;;;;5107389;27;20255;-70
2021/09/01 13:09:33;;;;;;;6.23;3.00;;;23.80;56.30;;;;;;5106324;27;20180;-67
2021/09/01 13:12:17;;;;;;;6.20;3.07;;;23.80;56.60;;;;;;5107514;28;20653;-68
2021/09/01 13:14:46;;;;;;;5.17;2.87;;;23.80;56.30;;;;;;5105835;28;20208;-68
2021/09/01 13:17:16;;;;;;;6.03;3.00;;;23.80;57.50;;;;;;5108330;28;20204;-70